Time;durP1;ratioP1;P1;durP2;ratioP2;P2;SDS_P1;SDS_P2;PMS_P1;PMS_P2;Temp;Humidity;BMP_temperature;BMP_pressure;BME280_temperature;BME280_humidity;BME280_pressure;Samples;Min_cycle;Max_cycle;Signal;HPM_P1;HPM_P2
2021/07/01 00:00:19;;;;;;;23.10;9.80;;;13.90;99.90;;;;;;4991959;28;25066;-75
2021/07/01 00:02:45;;;;;;;19.92;8.80;;;13.90;99.90;;;;;;4993978;28;25069;-74
2021/07/01 00:05:13;;;;;;;29.15;10.57;;;13.90;99.90;;;;;;4992260;28;25151;-75
2021/07/01 00:07:39;;;;;;;39.70;11.45;;;14.00;99.90;;;;;;4990786;28;25072;-74
2021/07/01 00:10:08;;;;;;;28.77;10.48;;;14.10;99.90;;;;;;4991707;28;25090;-74
2021/07/01 00:12:34;;;;;;;25.13;10.45;;;14.00;99.90;;;;;;4995368;28;25077;-73
2021/07/01 00:14:59;;;;;;;22.88;10.43;;;14.00;99.90;;;;;;4988013;28;25050;-74
2021/07/01 00:17:25;;;;;;;32.47;11.10;;;13.90;99.90;;;;;;4991385;28;25100;-76
2021/07/01 00:19:51;;;;;;;28.15;10.88;;;14.00;99.90;;;;;;4997459;28;25062;-75
2021/07/01 00:22:16;;;;;;;25.23;9.73;;;14.00;99.90;;;;;;4996970;28;25062;-74
2021/07/01 00:24:42;;;;;;;24.85;10.65;;;14.00;99.90;;;;;;4991416;28;25110;-75
2021/07/01 00:27:08;;;;;;;23.70;9.50;;;14.00;99.90;;;;;;4994711;28;25066;-75
2021/07/01 00:29:33;;;;;;;23.83;10.23;;;14.00;99.90;;;;;;4995751;28;25087;-73
2021/07/01 00:31:59;;;;;;;33.55;10.60;;;14.10;99.90;;;;;;4992329;28;25049;-72
2021/07/01 00:34:24;;;;;;;28.67;11.93;;;14.10;99.90;;;;;;5000514;28;25070;-75
2021/07/01 00:36:50;;;;;;;24.95;10.32;;;14.10;99.90;;;;;;4995043;28;25094;-75
2021/07/01 00:39:16;;;;;;;30.17;11.55;;;14.10;99.90;;;;;;4996380;28;25092;-74
2021/07/01 00:41:42;;;;;;;30.27;11.30;;;14.10;99.90;;;;;;4994785;28;25100;-73
2021/07/01 00:44:08;;;;;;;25.38;10.13;;;14.10;99.90;;;;;;4990046;28;25068;-73
2021/07/01 00:46:34;;;;;;;24.20;10.07;;;14.10;99.90;;;;;;4988718;28;25068;-75
2021/07/01 00:49:00;;;;;;;35.38;11.75;;;14.10;99.90;;;;;;4986326;28;25089;-75
2021/07/01 00:51:25;;;;;;;28.50;9.63;;;14.00;99.90;;;;;;4990640;28;25069;-74
2021/07/01 00:53:51;;;;;;;30.13;10.30;;;14.00;99.90;;;;;;4992798;28;25137;-74
2021/07/01 00:56:19;;;;;;;29.23;9.93;;;14.10;99.90;;;;;;5011287;28;25102;-75
2021/07/01 00:58:45;;;;;;;23.30;8.75;;;14.00;99.90;;;;;;5014121;28;25075;-74
2021/07/01 01:01:10;;;;;;;27.90;8.18;;;14.10;99.90;;;;;;4983424;28;25147;-73
2021/07/01 01:03:38;;;;;;;20.42;7.90;;;14.00;99.90;;;;;;4987439;28;25084;-73
2021/07/01 01:06:05;;;;;;;21.17;7.72;;;14.00;99.90;;;;;;4990661;28;25145;-74
2021/07/01 01:08:31;;;;;;;15.18;6.95;;;14.10;99.90;;;;;;4989693;28;25076;-75
2021/07/01 01:10:56;;;;;;;26.95;6.88;;;14.00;99.90;;;;;;4986735;28;25173;-73
2021/07/01 01:13:26;;;;;;;19.63;6.13;;;14.00;99.90;;;;;;4991157;28;25076;-74
2021/07/01 01:15:57;;;;;;;16.73;6.40;;;14.00;99.90;;;;;;4990290;28;25075;-73
2021/07/01 01:18:22;;;;;;;13.63;5.65;;;14.00;99.90;;;;;;4990366;28;25149;-74
2021/07/01 01:20:54;;;;;;;14.73;4.95;;;14.00;99.90;;;;;;4990891;28;25076;-75
2021/07/01 01:23:19;;;;;;;16.53;6.20;;;14.00;99.90;;;;;;4990115;28;25057;-74
2021/07/01 01:25:50;;;;;;;22.02;6.07;;;14.00;99.90;;;;;;4990416;28;25077;-74
2021/07/01 01:28:17;;;;;;;19.33;6.32;;;14.00;99.90;;;;;;4989899;28;25092;-72
2021/07/01 01:30:43;;;;;;;17.23;5.50;;;14.00;99.90;;;;;;4995421;28;25073;-75
2021/07/01 01:33:10;;;;;;;16.30;6.22;;;14.00;99.90;;;;;;4989238;28;25071;-75
2021/07/01 01:35:36;;;;;;;16.20;5.45;;;13.90;99.90;;;;;;4990977;28;25128;-74
2021/07/01 01:38:05;;;;;;;18.05;6.53;;;13.90;99.90;;;;;;4986542;28;25065;-74
2021/07/01 01:40:31;;;;;;;16.52;5.93;;;13.90;99.90;;;;;;4992348;28;25066;-74
2021/07/01 01:42:57;;;;;;;17.73;6.40;;;13.90;99.90;;;;;;4999869;28;25055;-76
2021/07/01 01:45:22;;;;;;;18.83;5.97;;;13.90;99.90;;;;;;4993994;28;25080;-74
2021/07/01 01:47:49;;;;;;;20.77;5.13;;;13.90;99.90;;;;;;4989655;28;25053;-74
2021/07/01 01:50:20;;;;;;;15.07;6.38;;;13.90;99.90;;;;;;4989110;28;25065;-73
2021/07/01 01:52:47;;;;;;;24.13;5.70;;;13.90;99.90;;;;;;4990300;28;25054;-74
2021/07/01 01:55:14;;;;;;;16.63;5.85;;;13.90;99.90;;;;;;4987048;28;25182;-74
2021/07/01 01:57:47;;;;;;;24.25;6.15;;;13.90;99.90;;;;;;4988665;28;25105;-73
2021/07/01 02:00:15;;;;;;;16.38;5.95;;;13.90;99.90;;;;;;4987611;28;25091;-74
2021/07/01 02:02:41;;;;;;;19.95;6.20;;;14.00;99.90;;;;;;4989468;28;25101;-74
2021/07/01 02:05:08;;;;;;;18.35;6.63;;;13.90;99.90;;;;;;4986475;28;25133;-76
2021/07/01 02:07:35;;;;;;;17.48;6.50;;;13.90;99.90;;;;;;4990863;28;25063;-73
2021/07/01 02:10:02;;;;;;;13.40;5.28;;;13.90;99.90;;;;;;4990196;28;25059;-74
2021/07/01 02:12:29;;;;;;;14.75;5.40;;;13.90;99.90;;;;;;4989947;28;25119;-74
2021/07/01 02:14:55;;;;;;;16.42;5.30;;;13.90;99.90;;;;;;4991888;28;25152;-74
2021/07/01 02:17:21;;;;;;;16.90;6.30;;;13.90;99.90;;;;;;4991777;28;25095;-72
2021/07/01 02:19:47;;;;;;;12.23;5.72;;;13.90;99.90;;;;;;4995304;28;25066;-75
2021/07/01 02:22:12;;;;;;;13.38;5.57;;;13.90;99.90;;;;;;4995281;28;25055;-74
2021/07/01 02:24:38;;;;;;;25.45;5.32;;;13.90;99.90;;;;;;4993786;28;25080;-73
2021/07/01 02:27:04;;;;;;;17.35;5.95;;;13.90;99.90;;;;;;4995089;28;25149;-74
2021/07/01 02:29:31;;;;;;;18.63;6.60;;;13.80;99.90;;;;;;5006842;28;25126;-74
2021/07/01 02:31:56;;;;;;;16.52;5.80;;;13.80;99.90;;;;;;4993277;28;25110;-74
2021/07/01 02:34:22;;;;;;;18.77;6.88;;;13.80;99.90;;;;;;4993319;28;25093;-73
2021/07/01 02:36:47;;;;;;;21.38;5.72;;;13.80;99.90;;;;;;4993398;28;25076;-74
2021/07/01 02:39:13;;;;;;;14.82;6.75;;;13.90;99.90;;;;;;4995030;28;25080;-75
2021/07/01 02:41:40;;;;;;;22.08;5.75;;;13.90;99.90;;;;;;4994766;28;25054;-73
2021/07/01 02:44:05;;;;;;;17.70;6.93;;;13.90;99.90;;;;;;4994618;28;25089;-74
2021/07/01 02:46:31;;;;;;;17.88;6.28;;;13.90;99.90;;;;;;4992946;28;25059;-73
2021/07/01 02:48:57;;;;;;;24.50;7.07;;;13.90;99.90;;;;;;4995955;28;25076;-75
2021/07/01 02:51:23;;;;;;;22.45;7.35;;;13.90;99.90;;;;;;4997357;28;25058;-74
2021/07/01 02:53:49;;;;;;;17.00;6.53;;;13.90;99.90;;;;;;4994694;28;25100;-72
2021/07/01 02:56:14;;;;;;;18.98;6.57;;;14.00;99.90;;;;;;4992706;28;25061;-74
2021/07/01 02:58:40;;;;;;;18.70;6.78;;;14.00;99.90;;;;;;4993230;28;25079;-74
2021/07/01 03:01:05;;;;;;;22.15;7.07;;;13.90;99.90;;;;;;4995659;28;25075;-73
2021/07/01 03:03:31;;;;;;;21.05;6.78;;;14.00;99.90;;;;;;4992103;28;25176;-73
2021/07/01 03:05:57;;;;;;;21.35;7.28;;;14.00;99.90;;;;;;4994195;28;25178;-73
2021/07/01 03:08:23;;;;;;;19.23;7.65;;;14.00;99.90;;;;;;4992668;28;25053;-73
2021/07/01 03:10:49;;;;;;;20.48;6.38;;;13.90;99.90;;;;;;4990313;28;25129;-74
2021/07/01 03:13:15;;;;;;;19.00;7.88;;;13.80;99.90;;;;;;4991246;28;25062;-74
2021/07/01 03:15:41;;;;;;;16.08;7.28;;;13.80;99.90;;;;;;4994405;28;25072;-75
2021/07/01 03:18:07;;;;;;;18.40;6.68;;;13.80;99.90;;;;;;4990301;28;25085;-74
2021/07/01 03:20:32;;;;;;;20.42;7.45;;;13.80;99.90;;;;;;4993845;28;25067;-74
2021/07/01 03:22:58;;;;;;;15.82;7.38;;;13.90;99.90;;;;;;4991889;28;25098;-74
2021/07/01 03:25:24;;;;;;;18.60;7.75;;;13.90;99.90;;;;;;4992545;28;25131;-74
2021/07/01 03:27:49;;;;;;;19.33;6.38;;;13.90;99.90;;;;;;4991067;28;25104;-73
2021/07/01 03:30:15;;;;;;;17.10;7.03;;;13.90;99.90;;;;;;4990830;28;25073;-75
2021/07/01 03:32:42;;;;;;;18.23;6.97;;;13.90;99.90;;;;;;4991643;28;25117;-74
2021/07/01 03:35:08;;;;;;;19.23;6.97;;;13.90;99.90;;;;;;4992384;28;25115;-73
2021/07/01 03:37:33;;;;;;;20.50;7.03;;;13.80;99.90;;;;;;4991377;28;25078;-74
2021/07/01 03:39:59;;;;;;;18.60;6.78;;;13.80;99.90;;;;;;4991597;28;25145;-75
2021/07/01 03:42:25;;;;;;;22.10;6.55;;;13.80;99.90;;;;;;4990294;28;25077;-74
2021/07/01 03:44:51;;;;;;;16.25;6.60;;;13.80;99.90;;;;;;4992063;28;25063;-75
2021/07/01 03:47:17;;;;;;;14.60;6.60;;;13.80;99.90;;;;;;4990495;28;25045;-74
2021/07/01 03:49:43;;;;;;;19.02;6.60;;;13.80;99.90;;;;;;4991951;28;25106;-72
2021/07/01 03:52:08;;;;;;;16.27;5.80;;;13.80;99.90;;;;;;4991833;28;25134;-73
2021/07/01 03:54:34;;;;;;;26.05;6.43;;;13.80;99.90;;;;;;4990065;28;25112;-72
2021/07/01 03:57:00;;;;;;;19.35;6.18;;;13.90;99.90;;;;;;4992190;28;25117;-73
2021/07/01 03:59:26;;;;;;;15.80;6.88;;;13.90;99.90;;;;;;4998177;28;25082;-74
2021/07/01 04:01:52;;;;;;;20.38;7.40;;;13.80;99.90;;;;;;4992820;28;25157;-75
2021/07/01 04:04:18;;;;;;;18.85;7.30;;;13.70;99.90;;;;;;4996212;28;25129;-74
2021/07/01 04:06:43;;;;;;;23.35;7.53;;;13.60;99.90;;;;;;4995078;28;25075;-74
2021/07/01 04:09:09;;;;;;;31.67;8.23;;;13.60;99.90;;;;;;4989097;28;25062;-75
2021/07/01 04:11:35;;;;;;;16.30;7.47;;;13.60;99.90;;;;;;4991007;28;25086;-74
2021/07/01 04:14:02;;;;;;;28.42;9.65;;;13.70;99.90;;;;;;4992496;28;25070;-73
2021/07/01 04:16:28;;;;;;;21.83;9.10;;;13.60;99.90;;;;;;4990095;28;25069;-73
2021/07/01 04:18:53;;;;;;;22.48;7.80;;;13.70;99.90;;;;;;5010257;28;25048;-76
2021/07/01 04:21:25;;;;;;;18.98;8.57;;;13.70;99.90;;;;;;5015741;28;25072;-77
2021/07/01 04:23:52;;;;;;;24.17;8.98;;;13.70;99.90;;;;;;5001237;28;25051;-75
2021/07/01 04:26:17;;;;;;;20.30;8.32;;;13.60;99.90;;;;;;5017511;28;25105;-74
2021/07/01 04:28:44;;;;;;;29.55;9.18;;;13.70;99.90;;;;;;5014213;28;25074;-75
2021/07/01 04:31:09;;;;;;;22.60;8.68;;;13.70;99.90;;;;;;5016421;28;25088;-73
2021/07/01 04:33:35;;;;;;;25.02;8.75;;;13.70;99.90;;;;;;5015170;28;25063;-74
2021/07/01 04:36:02;;;;;;;24.05;8.40;;;13.80;99.90;;;;;;5021818;28;25067;-75
2021/07/01 04:38:27;;;;;;;24.20;8.30;;;13.70;99.90;;;;;;5013971;28;25077;-76
2021/07/01 04:40:55;;;;;;;21.30;8.30;;;13.70;99.90;;;;;;5000688;28;25081;-74
2021/07/01 04:43:21;;;;;;;19.80;7.82;;;13.70;99.90;;;;;;4998222;28;25093;-74
2021/07/01 04:45:47;;;;;;;22.33;8.68;;;13.70;99.90;;;;;;4989773;28;25106;-72
2021/07/01 04:48:13;;;;;;;20.60;9.25;;;13.70;99.90;;;;;;5008435;28;25059;-72
2021/07/01 04:50:39;;;;;;;20.70;8.48;;;13.70;99.90;;;;;;5007510;28;25057;-71
2021/07/01 04:53:04;;;;;;;22.27;9.43;;;13.70;99.90;;;;;;5012157;28;25095;-76
2021/07/01 04:55:30;;;;;;;17.73;8.45;;;13.70;99.90;;;;;;5013778;28;25085;-76
2021/07/01 04:57:56;;;;;;;16.33;8.32;;;13.70;99.90;;;;;;5014344;28;25065;-76
2021/07/01 05:00:21;;;;;;;16.60;8.90;;;13.80;99.90;;;;;;5011578;28;25062;-75
2021/07/01 05:02:49;;;;;;;28.98;9.10;;;13.80;99.90;;;;;;5014225;28;25099;-76
2021/07/01 05:05:15;;;;;;;16.08;8.55;;;13.80;99.90;;;;;;5014998;28;25068;-75
2021/07/01 05:07:45;;;;;;;24.98;7.95;;;13.70;99.90;;;;;;5012938;28;25077;-75
2021/07/01 05:10:11;;;;;;;22.45;10.10;;;13.80;99.90;;;;;;5013509;28;25055;-75
2021/07/01 05:12:37;;;;;;;24.83;9.52;;;13.80;99.90;;;;;;5007905;28;25063;-76
2021/07/01 05:15:04;;;;;;;20.60;8.25;;;13.80;99.90;;;;;;5004550;28;25089;-73
2021/07/01 05:17:30;;;;;;;19.88;8.23;;;13.80;99.90;;;;;;4999003;28;25068;-75
2021/07/01 05:19:55;;;;;;;24.75;7.85;;;13.90;99.90;;;;;;4994425;28;25084;-75
2021/07/01 05:22:21;;;;;;;15.48;8.30;;;13.90;99.90;;;;;;5007088;28;25053;-75
2021/07/01 05:24:48;;;;;;;21.42;6.65;;;13.90;99.90;;;;;;4988133;28;25057;-74
2021/07/01 05:27:14;;;;;;;23.45;6.75;;;13.90;99.90;;;;;;4988980;28;25130;-73
2021/07/01 05:29:39;;;;;;;20.60;7.00;;;13.80;99.90;;;;;;4993269;28;25067;-76
2021/07/01 05:32:05;;;;;;;20.95;6.97;;;13.90;99.90;;;;;;4986982;28;25067;-73
2021/07/01 05:34:31;;;;;;;21.33;6.75;;;13.80;99.90;;;;;;4998943;28;25072;-75
2021/07/01 05:36:58;;;;;;;15.68;6.90;;;13.80;99.90;;;;;;4983847;28;25062;-72
2021/07/01 05:39:23;;;;;;;19.75;7.50;;;13.80;99.90;;;;;;4984495;28;25065;-75
2021/07/01 05:41:50;;;;;;;18.90;6.40;;;13.90;99.90;;;;;;4981749;28;25054;-73
2021/07/01 05:44:16;;;;;;;22.70;6.72;;;13.90;99.90;;;;;;4984958;28;25096;-75
2021/07/01 05:46:42;;;;;;;24.35;6.85;;;13.90;99.90;;;;;;4983555;28;25106;-73
2021/07/01 05:49:09;;;;;;;17.45;6.78;;;13.90;99.90;;;;;;4987909;28;25083;-72
2021/07/01 05:51:36;;;;;;;16.30;6.18;;;13.90;99.90;;;;;;4992371;28;25104;-73
2021/07/01 05:56:36;;;;;;;10.82;5.47;;;14.00;99.90;;;;;;4991411;28;25060;-73
2021/07/01 05:59:05;;;;;;;17.40;5.97;;;14.00;99.90;;;;;;4988074;28;25106;-76
2021/07/01 06:01:30;;;;;;;11.98;4.72;;;14.10;99.90;;;;;;5000228;28;25094;-75
2021/07/01 06:03:56;;;;;;;13.13;4.38;;;14.00;99.90;;;;;;4995884;28;25083;-75
2021/07/01 06:06:23;;;;;;;6.47;4.65;;;14.10;99.90;;;;;;4996160;28;25132;-77
2021/07/01 06:08:49;;;;;;;9.73;4.53;;;14.00;99.90;;;;;;4996472;28;25067;-72
2021/07/01 06:11:16;;;;;;;18.45;4.45;;;14.00;99.90;;;;;;4988722;28;25053;-73
2021/07/01 06:13:42;;;;;;;10.63;4.47;;;14.10;99.90;;;;;;4989996;28;25083;-70
2021/07/01 06:16:12;;;;;;;11.75;4.47;;;14.10;99.90;;;;;;4981694;28;25148;-73
2021/07/01 06:18:42;;;;;;;11.30;4.10;;;14.10;99.90;;;;;;5000819;28;25067;-74
2021/07/01 06:21:08;;;;;;;11.35;4.32;;;14.10;99.90;;;;;;4988271;28;25148;-75
2021/07/01 06:23:38;;;;;;;14.70;4.93;;;14.10;99.90;;;;;;4993054;28;25100;-74
2021/07/01 06:26:04;;;;;;;13.98;5.38;;;14.20;99.90;;;;;;4980443;28;25173;-74
2021/07/01 06:28:32;;;;;;;12.77;5.53;;;14.20;99.90;;;;;;4988509;28;25110;-74
2021/07/01 06:31:00;;;;;;;13.73;5.00;;;14.30;99.90;;;;;;4991404;28;25066;-74
2021/07/01 06:33:32;;;;;;;10.15;4.90;;;14.30;99.90;;;;;;5005856;28;25065;-76
2021/07/01 06:36:00;;;;;;;14.77;5.30;;;14.30;99.90;;;;;;5017595;28;25083;-74
2021/07/01 06:38:29;;;;;;;18.50;5.65;;;14.40;99.90;;;;;;5014250;28;25075;-75
2021/07/01 06:40:58;;;;;;;20.67;6.88;;;14.40;99.90;;;;;;5016995;28;25066;-75
2021/07/01 06:43:25;;;;;;;18.75;5.28;;;14.40;99.90;;;;;;5010119;28;25107;-77
2021/07/01 06:45:57;;;;;;;20.98;6.20;;;14.40;99.90;;;;;;5013958;28;25077;-75
2021/07/01 06:48:24;;;;;;;13.23;5.80;;;14.40;99.90;;;;;;5010660;28;25082;-76
2021/07/01 06:50:58;;;;;;;12.13;4.82;;;14.40;99.90;;;;;;5004727;28;25059;-77
2021/07/01 06:53:25;;;;;;;8.73;4.65;;;14.50;99.90;;;;;;5005628;28;25124;-73
2021/07/01 06:55:53;;;;;;;14.43;5.63;;;14.50;99.90;;;;;;4994005;28;25088;-75
2021/07/01 06:58:20;;;;;;;18.23;5.40;;;14.50;99.90;;;;;;4994748;28;25064;-75
2021/07/01 07:00:47;;;;;;;15.55;5.50;;;14.60;99.90;;;;;;4994037;28;25096;-74
2021/07/01 07:03:18;;;;;;;13.15;5.57;;;14.50;99.90;;;;;;4993188;28;25072;-73
2021/07/01 07:05:51;;;;;;;16.98;5.85;;;14.40;99.90;;;;;;4980692;28;25067;-75
2021/07/01 07:08:18;;;;;;;14.15;5.53;;;14.40;99.90;;;;;;5000052;28;25066;-74
2021/07/01 07:10:44;;;;;;;15.15;5.07;;;14.50;99.90;;;;;;4990781;28;25073;-74
2021/07/01 07:13:11;;;;;;;18.17;5.57;;;14.50;99.90;;;;;;4992862;28;25099;-74
2021/07/01 07:15:37;;;;;;;18.00;5.80;;;14.60;99.90;;;;;;4997055;28;25062;-74
2021/07/01 07:18:21;;;;;;;16.45;6.20;;;14.50;99.90;;;;;;4992824;28;25058;-75
2021/07/01 07:20:55;;;;;;;17.75;6.65;;;14.60;99.90;;;;;;4989684;28;25055;-77
2021/07/01 07:23:28;;;;;;;20.80;6.47;;;14.60;99.90;;;;;;4991946;28;25147;-76
2021/07/01 07:25:54;;;;;;;26.83;8.43;;;14.50;99.90;;;;;;4991950;28;25089;-76
2021/07/01 07:28:23;;;;;;;32.17;8.30;;;14.50;99.90;;;;;;4992052;28;25067;-75
2021/07/01 07:30:53;;;;;;;15.05;7.45;;;14.50;99.90;;;;;;4990666;28;25066;-74
2021/07/01 07:33:22;;;;;;;24.20;7.95;;;14.60;99.90;;;;;;4982508;28;25058;-74
2021/07/01 07:35:48;;;;;;;22.40;7.13;;;14.60;99.90;;;;;;4990626;28;25067;-75
2021/07/01 07:38:17;;;;;;;26.42;7.45;;;14.70;99.90;;;;;;4995778;28;25056;-75
2021/07/01 07:40:43;;;;;;;33.40;7.05;;;14.80;99.90;;;;;;4988522;28;25089;-74
2021/07/01 07:43:13;;;;;;;21.35;7.47;;;14.70;99.90;;;;;;4994404;28;25052;-76
2021/07/01 07:45:41;;;;;;;23.40;7.07;;;14.70;99.90;;;;;;4995325;28;25088;-75
2021/07/01 07:48:08;;;;;;;17.60;6.53;;;14.60;99.90;;;;;;4990063;28;25074;-73
2021/07/01 07:50:37;;;;;;;25.55;7.85;;;14.70;99.90;;;;;;4989675;28;25118;-74
2021/07/01 07:53:05;;;;;;;27.38;7.50;;;14.80;99.90;;;;;;4993642;28;25127;-74
2021/07/01 07:55:33;;;;;;;20.88;7.30;;;14.80;99.90;;;;;;4989366;28;25145;-73
2021/07/01 07:58:03;;;;;;;30.05;6.88;;;15.00;99.90;;;;;;4994221;28;25099;-75
2021/07/01 08:00:28;;;;;;;24.38;8.57;;;15.00;99.90;;;;;;4993791;28;25090;-73
2021/07/01 08:02:59;;;;;;;18.88;7.07;;;15.00;99.90;;;;;;4993528;28;25061;-73
2021/07/01 08:05:30;;;;;;;25.60;7.75;;;15.00;99.90;;;;;;4990933;28;25062;-76
2021/07/01 08:07:58;;;;;;;18.52;7.60;;;15.00;99.90;;;;;;4980439;28;25060;-73
2021/07/01 08:10:30;;;;;;;26.15;7.45;;;15.00;99.90;;;;;;4997516;28;25155;-73
2021/07/01 08:13:07;;;;;;;20.10;7.93;;;15.10;99.90;;;;;;5001662;28;25107;-75
2021/07/01 08:15:36;;;;;;;19.40;7.68;;;14.90;99.90;;;;;;5007171;28;25099;-77
2021/07/01 08:18:03;;;;;;;22.67;6.95;;;14.90;99.90;;;;;;5012835;28;25056;-76
2021/07/01 08:20:29;;;;;;;21.42;7.53;;;14.90;99.90;;;;;;4995972;28;25066;-77
2021/07/01 08:22:56;;;;;;;28.55;8.45;;;14.90;99.90;;;;;;4995460;28;25060;-75
2021/07/01 08:25:24;;;;;;;25.33;7.55;;;14.80;99.90;;;;;;4995594;28;25072;-77
2021/07/01 08:27:52;;;;;;;24.95;8.13;;;14.90;99.90;;;;;;5004305;28;25049;-76
2021/07/01 08:30:21;;;;;;;24.23;8.15;;;14.80;99.90;;;;;;4998294;28;25089;-80
2021/07/01 08:32:52;;;;;;;17.40;7.90;;;14.90;99.90;;;;;;4992632;28;25128;-74
2021/07/01 08:35:21;;;;;;;17.40;7.38;;;15.00;99.90;;;;;;4994532;28;25059;-75
2021/07/01 08:37:50;;;;;;;23.50;7.75;;;14.90;99.90;;;;;;4995271;28;25047;-79
2021/07/01 08:40:18;;;;;;;29.85;7.30;;;14.90;99.90;;;;;;4995507;28;25128;-76
2021/07/01 08:42:44;;;;;;;23.98;8.00;;;15.00;99.90;;;;;;4995482;28;25147;-79
2021/07/01 08:45:11;;;;;;;15.85;7.97;;;15.00;99.90;;;;;;4999932;28;25076;-74
2021/07/01 08:47:42;;;;;;;17.83;6.70;;;15.10;99.90;;;;;;4990889;28;25058;-74
2021/07/01 08:50:15;;;;;;;24.85;8.07;;;15.10;99.90;;;;;;4994773;28;25072;-78
2021/07/01 08:52:47;;;;;;;24.45;7.32;;;15.10;99.90;;;;;;4991927;28;25078;-77
2021/07/01 08:55:18;;;;;;;36.85;8.52;;;15.20;99.90;;;;;;4983976;28;25134;-76
2021/07/01 08:57:49;;;;;;;22.48;7.82;;;15.30;99.90;;;;;;4990073;28;25160;-76
2021/07/01 09:00:16;;;;;;;23.95;8.02;;;15.30;99.90;;;;;;4994598;28;25105;-77
2021/07/01 09:02:53;;;;;;;22.88;7.68;;;15.30;99.90;;;;;;4997478;28;25062;-77
2021/07/01 09:05:20;;;;;;;19.98;6.95;;;15.20;99.90;;;;;;4983146;28;25050;-76
2021/07/01 09:07:50;;;;;;;29.73;7.85;;;15.10;99.90;;;;;;4987075;28;25100;-76
2021/07/01 09:10:18;;;;;;;21.10;6.93;;;15.10;99.90;;;;;;4999110;28;25068;-77
2021/07/01 09:12:59;;;;;;;21.52;6.72;;;15.10;99.90;;;;;;4991884;28;25083;-75
2021/07/01 09:15:31;;;;;;;20.60;8.38;;;15.10;99.90;;;;;;4994491;28;25060;-80
2021/07/01 09:17:57;;;;;;;25.00;7.75;;;15.20;99.90;;;;;;4990927;28;25050;-75
2021/07/01 09:20:33;;;;;;;24.45;7.50;;;15.30;99.90;;;;;;4988455;28;25112;-75
2021/07/01 09:22:58;;;;;;;23.20;7.18;;;15.30;99.90;;;;;;4993286;28;26154;-76
2021/07/01 09:25:24;;;;;;;18.48;7.28;;;15.30;99.90;;;;;;4998926;28;25057;-76
2021/07/01 09:27:54;;;;;;;30.67;8.55;;;15.40;99.90;;;;;;4994107;28;25084;-75
2021/07/01 09:30:26;;;;;;;30.17;7.72;;;15.40;99.90;;;;;;5001140;28;25063;-78
2021/07/01 09:32:56;;;;;;;19.65;7.43;;;15.30;99.90;;;;;;4997828;28;25150;-79
2021/07/01 09:35:27;;;;;;;26.17;8.63;;;15.40;99.90;;;;;;4992698;28;25075;-77
2021/07/01 09:37:54;;;;;;;26.52;7.05;;;15.60;99.90;;;;;;4994886;28;25070;-77
2021/07/01 09:40:22;;;;;;;23.70;7.47;;;15.70;99.90;;;;;;4990679;28;25080;-76
2021/07/01 09:42:57;;;;;;;21.05;6.97;;;15.70;99.90;;;;;;4993259;28;25055;-77
2021/07/01 09:45:24;;;;;;;18.77;6.88;;;15.80;99.90;;;;;;4995519;28;25078;-78
2021/07/01 09:48:17;;;;;;;16.25;6.05;;;15.90;99.90;;;;;;4993031;28;25047;-78
2021/07/01 09:50:46;;;;;;;22.38;6.35;;;15.90;99.90;;;;;;5004373;28;25109;-78
2021/07/01 09:53:33;;;;;;;17.00;6.85;;;16.00;99.90;;;;;;4999311;28;25069;-77
2021/07/01 09:56:13;;;;;;;21.38;7.10;;;16.00;99.90;;;;;;5003827;28;25075;-77
2021/07/01 09:59:01;;;;;;;16.38;6.82;;;15.90;99.90;;;;;;5002928;28;25132;-78
2021/07/01 10:01:41;;;;;;;20.10;6.65;;;15.90;99.90;;;;;;5020613;28;25058;-77
2021/07/01 10:04:08;;;;;;;14.93;6.22;;;16.00;99.90;;;;;;5007928;28;25090;-82
2021/07/01 10:06:34;;;;;;;25.88;6.60;;;15.90;99.90;;;;;;5009080;28;25079;-78
2021/07/01 10:09:00;;;;;;;17.25;6.43;;;15.80;99.90;;;;;;5009294;28;25064;-78
2021/07/01 10:11:43;;;;;;;20.05;6.32;;;15.70;99.90;;;;;;5012195;28;25069;-77
2021/07/01 10:14:13;;;;;;;20.52;7.07;;;15.60;99.90;;;;;;5020442;28;25060;-77
2021/07/01 10:16:39;;;;;;;18.17;6.80;;;15.50;99.90;;;;;;5016632;28;25126;-78
2021/07/01 10:19:09;;;;;;;18.48;6.65;;;15.30;99.90;;;;;;5005004;28;25073;-78
2021/07/01 10:21:40;;;;;;;15.05;6.70;;;15.20;99.90;;;;;;5007173;28;25071;-76
2021/07/01 10:24:21;;;;;;;17.52;7.10;;;15.30;99.90;;;;;;5004218;28;25071;-76
2021/07/01 10:26:50;;;;;;;18.20;7.15;;;15.30;99.90;;;;;;5002608;28;25074;-79
2021/07/01 10:29:17;;;;;;;18.70;6.38;;;15.30;99.90;;;;;;5005555;28;25073;-76
2021/07/01 10:31:59;;;;;;;18.55;6.78;;;15.40;99.90;;;;;;4996254;28;25109;-77
2021/07/01 10:34:28;;;;;;;24.52;7.53;;;15.30;99.90;;;;;;4998104;28;25044;-78
2021/07/01 10:37:14;;;;;;;14.35;6.95;;;15.40;99.90;;;;;;5001371;28;25122;-74
2021/07/01 10:39:40;;;;;;;16.23;6.15;;;15.60;99.90;;;;;;4995820;28;25084;-76
2021/07/01 10:42:05;;;;;;;20.50;7.55;;;15.70;99.90;;;;;;5000050;28;25079;-76
2021/07/01 10:44:31;;;;;;;19.30;6.65;;;15.60;99.90;;;;;;5017726;28;25093;-77
2021/07/01 10:46:57;;;;;;;21.15;6.97;;;15.60;99.90;;;;;;5000643;28;25082;-79
2021/07/01 10:49:34;;;;;;;12.23;5.82;;;15.50;99.90;;;;;;5000181;28;25072;-77
2021/07/01 10:52:02;;;;;;;12.38;6.10;;;15.50;99.90;;;;;;4986503;28;25067;-77
2021/07/01 10:54:28;;;;;;;19.20;6.53;;;15.50;99.90;;;;;;4999963;28;25053;-76
2021/07/01 10:57:04;;;;;;;18.58;6.25;;;15.50;99.90;;;;;;4999141;28;25130;-76
2021/07/01 10:59:52;;;;;;;19.50;6.55;;;15.50;99.90;;;;;;4999318;28;25134;-76
2021/07/01 11:02:29;;;;;;;15.43;6.40;;;15.60;99.90;;;;;;4988088;28;25141;-75
2021/07/01 11:04:57;;;;;;;20.10;6.28;;;15.60;99.90;;;;;;4994380;28;25067;-74
2021/07/01 11:07:23;;;;;;;18.55;6.68;;;15.60;99.90;;;;;;4994346;28;25074;-77
2021/07/01 11:09:56;;;;;;;16.52;6.63;;;15.70;99.90;;;;;;4998608;28;25066;-78
2021/07/01 11:12:26;;;;;;;19.10;7.78;;;15.70;99.90;;;;;;5005149;28;25065;-76
2021/07/01 11:14:55;;;;;;;21.00;7.82;;;15.60;99.90;;;;;;5016206;28;25092;-76
2021/07/01 11:17:35;;;;;;;19.83;6.47;;;15.60;99.90;;;;;;5019313;28;25063;-76
2021/07/01 11:20:20;;;;;;;20.52;7.25;;;15.60;99.90;;;;;;4998995;28;25071;-77
2021/07/01 11:22:56;;;;;;;20.50;7.25;;;15.60;99.90;;;;;;4997294;28;25058;-78
2021/07/01 11:25:35;;;;;;;20.38;7.80;;;15.40;99.90;;;;;;5008185;28;25099;-77
2021/07/01 11:28:23;;;;;;;22.77;7.85;;;15.40;99.90;;;;;;5002924;28;25102;-78
2021/07/01 11:30:58;;;;;;;19.27;7.97;;;15.50;99.90;;;;;;5002546;28;25069;-79
2021/07/01 11:33:27;;;;;;;26.50;8.40;;;15.50;99.90;;;;;;5011163;28;25056;-75
2021/07/01 11:36:09;;;;;;;23.17;8.65;;;15.50;99.90;;;;;;5014152;28;25055;-77
2021/07/01 11:38:35;;;;;;;41.38;9.13;;;15.50;99.90;;;;;;5004805;28;25059;-77
2021/07/01 11:41:04;;;;;;;24.45;8.32;;;15.50;99.90;;;;;;5007710;28;25129;-79
2021/07/01 11:43:32;;;;;;;27.08;8.85;;;15.50;99.90;;;;;;4997836;28;25066;-77
2021/07/01 11:45:58;;;;;;;34.10;9.07;;;15.40;99.90;;;;;;4997076;28;25085;-75
2021/07/01 11:48:26;;;;;;;27.52;9.27;;;15.30;99.90;;;;;;4998163;28;25089;-77
2021/07/01 11:50:53;;;;;;;31.88;9.35;;;15.40;99.90;;;;;;4998914;28;25157;-77
2021/07/01 11:53:20;;;;;;;25.23;8.45;;;15.40;99.90;;;;;;4998780;28;25054;-78
2021/07/01 11:55:47;;;;;;;31.50;9.40;;;15.50;99.90;;;;;;4997534;28;25137;-79
2021/07/01 11:58:14;;;;;;;31.80;10.45;;;15.50;99.90;;;;;;4998441;28;25090;-78
2021/07/01 12:00:40;;;;;;;29.15;9.55;;;15.40;99.90;;;;;;4987050;28;25065;-76
2021/07/01 12:03:07;;;;;;;31.35;9.40;;;15.50;99.90;;;;;;5004132;28;25059;-77
2021/07/01 12:05:33;;;;;;;32.72;10.15;;;15.70;99.90;;;;;;5001281;28;25084;-79
2021/07/01 12:08:02;;;;;;;38.47;10.02;;;15.70;99.90;;;;;;5007248;28;25069;-75
2021/07/01 12:10:28;;;;;;;27.25;8.63;;;15.80;99.90;;;;;;5004736;28;25113;-76
2021/07/01 12:12:55;;;;;;;36.67;10.10;;;15.90;99.90;;;;;;4998749;28;25050;-78
2021/07/01 12:15:21;;;;;;;26.33;9.13;;;15.90;99.90;;;;;;5002185;28;25076;-78
2021/07/01 12:18:03;;;;;;;25.38;9.15;;;15.80;99.90;;;;;;4999590;28;25075;-76
2021/07/01 12:20:39;;;;;;;29.38;8.32;;;15.60;99.90;;;;;;4995483;28;25070;-77
2021/07/01 12:23:17;;;;;;;28.65;8.30;;;15.70;99.90;;;;;;4999337;28;25091;-77
2021/07/01 12:25:45;;;;;;;29.13;8.98;;;15.70;99.90;;;;;;4996005;28;25067;-75
2021/07/01 12:28:19;;;;;;;24.13;8.05;;;15.80;99.90;;;;;;4997208;28;25093;-76
2021/07/01 12:30:58;;;;;;;26.15;7.65;;;15.80;99.90;;;;;;4997517;28;25059;-76
2021/07/01 12:33:33;;;;;;;26.73;9.55;;;15.80;99.90;;;;;;4999161;28;25053;-76
2021/07/01 12:36:03;;;;;;;30.55;8.48;;;15.80;99.90;;;;;;4996775;28;25076;-75
2021/07/01 12:38:29;;;;;;;34.45;9.55;;;15.70;99.90;;;;;;4996532;28;25114;-76
2021/07/01 12:40:56;;;;;;;24.85;9.02;;;15.70;99.90;;;;;;4995832;28;25051;-77
2021/07/01 12:44:00;;;;;;;25.50;7.60;;;15.70;99.90;;;;;;4994227;28;25090;-78